Etusivu
METAR-TAF:

METAR-TAF

Lentoasemat :

Kemi-Tornion lentoasema

Kemi, Suomi

Leveyspiiri: 65-47N, Pituuspiiri: 024-35E, korkeus merenpinnasta: 15 m

Tämänhetkinen sää

Tämä raportti tehtiin 36 minuuttia sitten, kello 22.50 UTC
Tuuli 2 kn lännestä/lounaasta
Lämpötila -4°C
Kosteus 93%
Ilmanpaine 1034 hPa
Näkyvyys 10 km tai enemmän
ei pilviä alle 1500 m:ssä eikä cumulonimbus-pilviä

METAR: EFKE 202250Z 24002KT CAVOK M04/M05 Q1034

Aika: 01:26 (23:26 UTC)

Sääennuste

Tämä raportti tehtiin 1 tunti ja 25 minuuttia sitten, kello 22.01 UTC
Ennuste voimassa 20. päivästä klo 22 UTC - 20. päivään klo 24 UTC
Tuuli 5 kn lännestä
Näkyvyys 10 km tai enemmän
Hajanaisia pilviä 3500 ft:n korkeudessa

TAF: EFKE 202201Z 2022/2024 28005KT 9999 SCT035

Säähavainnot ja -ennusteet yli 4000 lentoasemalta (METAR- ja TAF-raportit).

Käytössä olevat sääasemat on merkitty karttaan keltaisilla ja punaisilla pisteillä.

Aseta hiiri pisteen päälle nähdäksesi sääaseman nimen.

Klikkaa sitten nähdäksesi säähavainnot ja -ennusteet.

Kartan vaihtaminen: klikkaa mustalla rastilla varustettuja vihreitä pisteitä, niin voit zoomata sisään; viivalla varustettua vihreää pistettä, niin voit zoomata ulos tai vihreitä nuolia, niin pääset viereisille kartoille.


METAR-TAF: